Time;durP1;ratioP1;P1;durP2;ratioP2;P2;SDS_P1;SDS_P2;PMS_P1;PMS_P2;Temp;Humidity;BMP_temperature;BMP_pressure;BME280_temperature;BME280_humidity;BME280_pressure;Samples;Min_cycle;Max_cycle;Signal;HPM_P1;HPM_P2
2023/07/09 00:02:26;;;;;;;7.63;3.25;;;20.70;93.40;;;;;;4800790;29;20180;-77
2023/07/09 00:04:54;;;;;;;7.85;3.72;;;20.70;93.80;;;;;;4775821;29;22433;-77
2023/07/09 00:07:30;;;;;;;7.60;3.80;;;20.70;94.00;;;;;;4801551;29;20054;-77
2023/07/09 00:09:58;;;;;;;7.35;3.65;;;20.60;93.70;;;;;;4791820;29;20046;-77
2023/07/09 00:12:25;;;;;;;6.55;3.90;;;20.60;93.60;;;;;;4806709;29;20950;-77
2023/07/09 00:14:54;;;;;;;5.82;4.07;;;20.50;93.70;;;;;;4785320;29;20463;-77
2023/07/09 00:17:27;;;;;;;6.97;4.10;;;20.50;93.80;;;;;;4783735;29;20516;-77
2023/07/09 00:19:54;;;;;;;9.98;4.95;;;20.50;93.60;;;;;;4771526;29;20058;-77
2023/07/09 00:22:22;;;;;;;7.25;4.60;;;20.40;93.70;;;;;;4772256;29;20042;-77
2023/07/09 00:24:50;;;;;;;6.78;3.58;;;20.30;93.70;;;;;;4803469;29;20521;-77
2023/07/09 00:27:20;;;;;;;5.72;3.33;;;20.40;93.80;;;;;;4804120;29;20137;-77
2023/07/09 00:29:48;;;;;;;7.10;4.10;;;20.30;93.90;;;;;;4802348;29;20185;-76
2023/07/09 00:32:20;;;;;;;7.07;4.03;;;20.30;94.00;;;;;;4789007;29;20054;-77
2023/07/09 00:34:51;;;;;;;6.97;3.97;;;20.30;94.00;;;;;;4800574;29;20054;-77
2023/07/09 00:37:21;;;;;;;4.95;3.85;;;20.30;94.10;;;;;;4785862;29;20054;-77
2023/07/09 00:39:48;;;;;;;6.40;4.60;;;20.20;94.30;;;;;;4786902;29;22439;-77
2023/07/09 00:42:20;;;;;;;5.60;3.67;;;20.20;94.10;;;;;;4799024;29;20112;-77
2023/07/09 00:44:51;;;;;;;6.03;3.75;;;20.20;94.20;;;;;;4802731;29;20238;-77
2023/07/09 00:48:00;;;;;;;7.43;4.45;;;20.20;94.30;;;;;;4800519;29;20165;-77
2023/07/09 00:50:33;;;;;;;7.95;4.55;;;20.10;94.90;;;;;;4777481;29;20201;-77
2023/07/09 00:53:18;;;;;;;7.72;4.20;;;20.10;94.50;;;;;;4798302;29;20050;-77
2023/07/09 00:55:53;;;;;;;7.40;4.65;;;20.10;94.90;;;;;;4804143;29;20053;-77
2023/07/09 00:58:21;;;;;;;9.18;4.68;;;20.10;94.90;;;;;;4783262;29;20061;-77
2023/07/09 01:00:55;;;;;;;15.40;5.07;;;20.10;95.00;;;;;;4779333;29;20053;-77
2023/07/09 01:03:35;;;;;;;10.38;4.85;;;20.10;95.20;;;;;;4784219;29;20256;-77
2023/07/09 01:06:05;;;;;;;9.32;4.22;;;20.00;95.10;;;;;;4785971;29;20049;-77
2023/07/09 01:08:34;;;;;;;7.18;4.60;;;20.00;95.40;;;;;;4774131;29;20046;-77
2023/07/09 01:11:01;;;;;;;9.40;4.50;;;20.00;95.60;;;;;;4804445;29;20134;-77
2023/07/09 01:13:32;;;;;;;8.32;4.50;;;19.90;95.90;;;;;;4774609;29;20525;-77
2023/07/09 01:15:59;;;;;;;8.45;4.40;;;19.90;96.00;;;;;;4777274;29;20514;-77
2023/07/09 01:18:28;;;;;;;7.45;4.53;;;19.90;95.70;;;;;;4786793;29;20158;-77
2023/07/09 01:21:15;;;;;;;8.60;4.85;;;19.90;96.30;;;;;;4781579;29;20057;-77
2023/07/09 01:23:44;;;;;;;8.45;4.65;;;19.90;96.10;;;;;;4784903;29;20198;-77
2023/07/09 01:26:13;;;;;;;9.82;3.95;;;19.90;96.30;;;;;;4799460;29;20191;-77
2023/07/09 01:28:43;;;;;;;9.32;4.45;;;19.80;96.40;;;;;;4787131;29;20054;-77
2023/07/09 01:31:12;;;;;;;11.27;4.95;;;19.80;96.50;;;;;;4786987;29;22564;-77
2023/07/09 01:33:41;;;;;;;8.15;4.32;;;19.80;96.60;;;;;;4796205;29;20133;-77
2023/07/09 01:36:10;;;;;;;9.65;4.55;;;19.70;96.70;;;;;;4782085;29;20185;-77
2023/07/09 01:38:37;;;;;;;7.95;4.53;;;19.70;96.70;;;;;;4781697;29;20099;-77
2023/07/09 01:41:04;;;;;;;6.43;4.45;;;19.70;96.70;;;;;;4786398;29;20475;-76
2023/07/09 01:43:34;;;;;;;5.82;4.50;;;19.70;96.60;;;;;;4785880;29;20042;-77
2023/07/09 01:46:01;;;;;;;9.57;4.80;;;19.70;96.70;;;;;;4789928;29;20062;-77
2023/07/09 01:48:29;;;;;;;7.82;4.05;;;19.70;97.00;;;;;;4753694;29;21673;-77
2023/07/09 01:50:56;;;;;;;11.13;5.47;;;19.60;97.10;;;;;;4781745;29;20533;-77
2023/07/09 01:53:26;;;;;;;8.23;4.82;;;19.60;97.20;;;;;;4771659;29;21064;-77
2023/07/09 01:55:54;;;;;;;9.40;5.18;;;19.60;97.30;;;;;;4783187;29;20569;-77
2023/07/09 01:58:24;;;;;;;9.02;4.70;;;19.50;97.40;;;;;;4774063;29;20050;-77
2023/07/09 02:00:52;;;;;;;6.25;4.30;;;19.50;97.70;;;;;;4767422;29;21273;-77
2023/07/09 02:03:19;;;;;;;6.40;4.28;;;19.50;97.70;;;;;;4786359;29;20054;-77
2023/07/09 02:05:46;;;;;;;6.60;4.03;;;19.50;97.70;;;;;;4769186;29;20138;-77
2023/07/09 02:08:14;;;;;;;9.05;5.03;;;19.50;97.60;;;;;;4770735;29;20105;-77
2023/07/09 02:10:44;;;;;;;9.93;4.63;;;19.50;97.60;;;;;;4767537;29;20201;-77
2023/07/09 02:13:11;;;;;;;11.45;5.18;;;19.40;97.70;;;;;;4769769;29;20061;-77
2023/07/09 02:15:43;;;;;;;6.32;3.95;;;19.40;98.00;;;;;;4773417;29;20169;-77
2023/07/09 02:18:12;;;;;;;8.55;4.68;;;19.40;98.20;;;;;;4767853;29;20053;-77
2023/07/09 02:20:39;;;;;;;8.13;4.43;;;19.40;98.10;;;;;;4761365;29;20570;-77
2023/07/09 02:23:08;;;;;;;8.68;5.18;;;19.40;98.10;;;;;;4767963;29;20133;-77
2023/07/09 02:25:35;;;;;;;7.80;4.78;;;19.30;98.10;;;;;;4782939;29;20123;-77
2023/07/09 02:28:03;;;;;;;7.13;4.43;;;19.30;98.20;;;;;;4773522;29;20525;-77
2023/07/09 02:30:30;;;;;;;9.05;4.60;;;19.30;98.30;;;;;;4758774;29;20047;-77
2023/07/09 02:32:58;;;;;;;5.47;4.60;;;19.40;98.00;;;;;;4780235;29;20043;-77
2023/07/09 02:35:26;;;;;;;6.95;4.53;;;19.30;98.40;;;;;;4756980;29;20050;-77
2023/07/09 02:37:53;;;;;;;15.90;6.38;;;19.30;97.80;;;;;;4776229;29;20069;-77
2023/07/09 02:40:21;;;;;;;9.73;5.00;;;19.20;98.00;;;;;;4768480;29;20104;-77
2023/07/09 02:42:48;;;;;;;6.78;4.07;;;19.20;98.10;;;;;;4773502;29;20047;-77
2023/07/09 02:45:17;;;;;;;7.85;4.95;;;19.20;98.00;;;;;;4794907;29;20880;-77
2023/07/09 02:47:46;;;;;;;9.20;4.82;;;19.20;98.20;;;;;;4785997;29;20058;-77
2023/07/09 02:50:14;;;;;;;11.52;4.75;;;19.10;98.20;;;;;;4787873;29;20054;-77
2023/07/09 02:52:42;;;;;;;6.18;4.10;;;19.10;98.20;;;;;;4772754;29;20173;-77
2023/07/09 02:55:09;;;;;;;10.90;4.95;;;19.10;98.10;;;;;;4797349;29;20057;-77
2023/07/09 02:57:36;;;;;;;10.10;4.93;;;19.10;98.00;;;;;;4771017;29;20054;-77
2023/07/09 03:00:05;;;;;;;6.97;4.68;;;19.00;98.00;;;;;;4790796;29;20085;-77
2023/07/09 03:02:34;;;;;;;11.45;4.53;;;19.00;98.00;;;;;;4795154;29;20052;-77
2023/07/09 03:05:01;;;;;;;8.27;4.40;;;19.00;97.90;;;;;;4791064;29;20133;-77
2023/07/09 03:07:29;;;;;;;8.50;4.40;;;19.00;98.20;;;;;;4799569;29;20046;-77
2023/07/09 03:09:56;;;;;;;6.80;4.40;;;19.00;98.30;;;;;;4781459;29;20422;-77
2023/07/09 03:12:23;;;;;;;7.97;4.68;;;18.90;98.50;;;;;;4806172;29;20057;-77
2023/07/09 03:14:50;;;;;;;10.38;4.50;;;19.30;98.90;;;;;;4805401;29;20058;-77
2023/07/09 03:17:18;;;;;;;8.85;4.80;;;18.90;99.00;;;;;;4789927;29;20072;-77
2023/07/09 03:19:45;;;;;;;7.45;4.28;;;18.90;99.00;;;;;;4805415;29;20054;-77
2023/07/09 03:22:12;;;;;;;6.28;3.92;;;18.90;98.90;;;;;;4771585;29;20054;-77
2023/07/09 03:24:40;;;;;;;8.07;4.90;;;18.90;99.10;;;;;;4787712;29;20069;-77
2023/07/09 03:27:07;;;;;;;12.18;5.75;;;18.80;99.00;;;;;;4787989;29;20194;-77
2023/07/09 03:29:34;;;;;;;11.30;4.93;;;18.90;99.90;;;;;;4811788;29;20050;-77
2023/07/09 03:32:01;;;;;;;7.30;5.35;;;18.90;99.90;;;;;;4790298;29;20058;-77
2023/07/09 03:34:29;;;;;;;6.43;4.45;;;18.70;99.50;;;;;;4787752;29;20066;-77
2023/07/09 03:36:56;;;;;;;8.85;4.95;;;18.80;99.70;;;;;;4770195;29;20050;-77
2023/07/09 03:39:23;;;;;;;9.23;5.38;;;18.80;99.90;;;;;;4792031;29;20075;-77
2023/07/09 03:41:50;;;;;;;8.23;5.18;;;18.80;99.80;;;;;;4783757;29;20669;-77
2023/07/09 03:44:17;;;;;;;9.82;4.43;;;18.80;99.90;;;;;;4782814;29;20054;-77
2023/07/09 03:46:45;;;;;;;7.97;5.53;;;18.80;99.90;;;;;;4768867;29;20072;-77
2023/07/09 03:49:12;;;;;;;10.43;6.22;;;18.80;99.90;;;;;;4768932;29;20536;-77
2023/07/09 03:51:40;;;;;;;9.55;5.85;;;18.90;99.90;;;;;;4769335;29;20081;-77
2023/07/09 03:54:07;;;;;;;10.60;5.20;;;18.80;99.90;;;;;;4783206;29;20064;-77
2023/07/09 03:56:34;;;;;;;7.43;4.80;;;18.90;99.90;;;;;;4785684;29;20050;-77
2023/07/09 03:59:01;;;;;;;10.80;6.43;;;18.90;99.90;;;;;;4787968;29;20542;-77
2023/07/09 04:01:29;;;;;;;10.35;5.10;;;18.20;99.60;;;;;;4784431;29;20145;-77
2023/07/09 04:03:56;;;;;;;6.75;4.90;;;19.00;99.90;;;;;;4800519;29;20910;-77
2023/07/09 04:06:23;;;;;;;7.03;5.03;;;19.00;99.90;;;;;;4801465;29;20515;-78
2023/07/09 04:08:51;;;;;;;8.30;5.38;;;19.00;99.90;;;;;;4803502;29;20190;-78
2023/07/09 04:11:18;;;;;;;6.18;4.82;;;19.10;99.90;;;;;;4805877;29;20046;-77
2023/07/09 04:13:45;;;;;;;9.88;5.15;;;19.10;99.90;;;;;;4786626;29;20065;-77
2023/07/09 04:16:13;;;;;;;8.15;5.40;;;19.10;99.90;;;;;;4788925;29;20190;-77
2023/07/09 04:18:40;;;;;;;9.38;5.60;;;19.10;99.90;;;;;;4787046;29;20737;-77
2023/07/09 04:21:08;;;;;;;9.50;5.47;;;19.20;99.90;;;;;;4797517;29;20065;-77
2023/07/09 04:23:35;;;;;;;7.88;5.57;;;19.30;99.90;;;;;;4776718;29;20061;-77
2023/07/09 04:26:03;;;;;;;8.88;4.60;;;19.30;99.90;;;;;;4801833;29;20058;-77
2023/07/09 04:28:31;;;;;;;8.82;5.35;;;19.40;99.70;;;;;;4810852;29;20138;-77
2023/07/09 04:30:59;;;;;;;10.23;5.78;;;19.40;99.40;;;;;;4802784;29;20065;-77
2023/07/09 04:33:26;;;;;;;7.55;5.80;;;19.50;99.20;;;;;;4788776;29;20114;-77
2023/07/09 04:35:54;;;;;;;8.02;5.38;;;19.60;99.20;;;;;;4805072;29;20545;-77
2023/07/09 04:38:22;;;;;;;7.72;5.20;;;19.60;99.10;;;;;;4804550;29;20090;-77
2023/07/09 04:40:49;;;;;;;10.00;5.68;;;19.80;99.30;;;;;;4785374;29;22897;-77
2023/07/09 04:43:17;;;;;;;9.57;5.78;;;19.80;99.00;;;;;;4789029;29;20782;-77
2023/07/09 04:45:45;;;;;;;9.55;6.15;;;19.90;98.20;;;;;;4798911;29;20076;-77
2023/07/09 04:48:12;;;;;;;10.13;5.75;;;19.30;97.70;;;;;;4784574;29;22704;-78
2023/07/09 04:50:40;;;;;;;9.20;5.13;;;20.00;97.90;;;;;;4768642;29;20556;-77
2023/07/09 04:53:08;;;;;;;9.68;6.25;;;20.10;98.30;;;;;;4769992;29;20141;-76
2023/07/09 04:55:36;;;;;;;9.80;6.03;;;20.20;98.00;;;;;;4785024;29;20179;-77
2023/07/09 04:58:03;;;;;;;9.70;4.70;;;20.30;97.60;;;;;;4786188;29;20042;-77
2023/07/09 05:00:31;;;;;;;9.02;5.55;;;20.20;97.50;;;;;;4770055;29;20515;-77
2023/07/09 05:02:58;;;;;;;12.35;6.15;;;20.80;97.60;;;;;;4799004;29;20169;-77
2023/07/09 05:05:26;;;;;;;9.88;6.32;;;20.60;96.90;;;;;;4799812;29;20187;-77
2023/07/09 05:07:54;;;;;;;9.63;6.13;;;20.70;96.70;;;;;;4786479;29;20073;-77
2023/07/09 05:10:21;;;;;;;8.00;5.10;;;20.80;96.50;;;;;;4772603;29;20329;-77
2023/07/09 05:12:50;;;;;;;9.38;6.13;;;20.80;96.30;;;;;;4785178;29;20065;-77
2023/07/09 05:15:19;;;;;;;7.03;4.57;;;21.00;95.60;;;;;;4769281;29;20045;-77
2023/07/09 05:17:47;;;;;;;9.25;5.90;;;21.20;94.70;;;;;;4786520;29;20062;-77
2023/07/09 05:20:15;;;;;;;8.57;5.53;;;21.20;94.20;;;;;;4783496;29;20083;-77
2023/07/09 05:22:42;;;;;;;7.78;5.03;;;21.30;93.90;;;;;;4793165;29;20042;-77
2023/07/09 05:25:10;;;;;;;11.98;5.78;;;21.50;93.70;;;;;;4797572;29;20057;-78
2023/07/09 05:27:37;;;;;;;7.80;4.95;;;21.60;93.60;;;;;;4801358;29;20054;-77
2023/07/09 05:30:06;;;;;;;6.90;4.90;;;21.80;94.00;;;;;;4778661;29;20058;-77
2023/07/09 05:32:34;;;;;;;7.95;5.20;;;22.40;93.70;;;;;;4795763;29;20053;-77
2023/07/09 05:35:01;;;;;;;7.32;5.80;;;22.00;92.60;;;;;;4799844;29;20176;-78
2023/07/09 05:37:29;;;;;;;7.95;5.03;;;22.10;91.80;;;;;;4785076;29;20050;-78
2023/07/09 05:39:56;;;;;;;9.88;4.60;;;22.20;92.30;;;;;;4778684;29;20144;-78
2023/07/09 05:42:23;;;;;;;8.13;4.95;;;22.50;91.40;;;;;;4781586;29;20061;-78
2023/07/09 05:44:52;;;;;;;6.60;4.93;;;22.60;91.90;;;;;;4795605;29;20069;-78
2023/07/09 05:47:19;;;;;;;9.68;5.82;;;22.70;93.00;;;;;;4782664;29;20050;-78
2023/07/09 05:49:49;;;;;;;9.65;5.75;;;22.70;91.80;;;;;;4782778;29;20221;-78
2023/07/09 05:52:20;;;;;;;9.15;6.32;;;22.90;92.70;;;;;;4786164;29;20073;-78
2023/07/09 05:54:52;;;;;;;8.30;6.20;;;22.90;92.10;;;;;;4768638;29;20141;-78
2023/07/09 05:57:19;;;;;;;7.88;6.88;;;23.10;92.60;;;;;;4797800;29;20054;-78
2023/07/09 05:59:46;;;;;;;8.05;6.55;;;23.10;92.40;;;;;;4782333;29;20138;-78
2023/07/09 06:02:16;;;;;;;9.10;6.38;;;23.40;92.10;;;;;;4779675;29;22163;-78
2023/07/09 06:04:43;;;;;;;9.45;6.50;;;23.50;91.30;;;;;;4780211;29;20054;-78
2023/07/09 06:07:10;;;;;;;11.40;5.82;;;23.60;91.70;;;;;;4782558;29;20042;-78
2023/07/09 06:09:37;;;;;;;7.43;5.80;;;23.80;91.70;;;;;;4805448;29;20384;-79
2023/07/09 06:12:05;;;;;;;7.15;4.68;;;23.80;90.70;;;;;;4764632;29;20047;-78
2023/07/09 06:14:33;;;;;;;7.75;5.82;;;24.00;89.00;;;;;;4786345;29;20050;-77
2023/07/09 06:17:01;;;;;;;7.40;5.00;;;24.10;89.50;;;;;;4780731;29;20455;-78
2023/07/09 06:19:28;;;;;;;7.53;5.03;;;24.20;88.40;;;;;;4779354;29;20053;-77
2023/07/09 06:21:56;;;;;;;8.10;5.15;;;24.40;89.80;;;;;;4800400;29;20057;-78
2023/07/09 06:24:23;;;;;;;6.78;4.82;;;24.60;90.80;;;;;;4792718;29;20050;-77
2023/07/09 06:26:51;;;;;;;6.03;4.25;;;24.60;89.00;;;;;;4785857;29;20045;-77
2023/07/09 06:29:18;;;;;;;7.00;4.65;;;24.70;87.50;;;;;;4793249;29;20152;-78
2023/07/09 06:31:45;;;;;;;5.65;4.15;;;24.90;88.30;;;;;;4796517;29;20061;-78
2023/07/09 06:34:12;;;;;;;7.45;4.15;;;25.00;84.10;;;;;;4782856;29;22507;-78
2023/07/09 06:36:40;;;;;;;7.35;4.50;;;25.10;84.80;;;;;;4781191;29;20050;-78
2023/07/09 06:39:10;;;;;;;5.70;3.70;;;25.30;83.80;;;;;;4781914;29;20046;-78
2023/07/09 06:41:38;;;;;;;8.50;3.80;;;25.40;82.80;;;;;;4816305;29;20046;-78
2023/07/09 06:44:09;;;;;;;5.60;3.70;;;25.50;81.90;;;;;;4792973;29;20523;-78
2023/07/09 06:46:36;;;;;;;7.55;3.53;;;25.60;81.60;;;;;;4776193;29;20525;-77
2023/07/09 06:49:07;;;;;;;5.43;3.15;;;25.80;82.60;;;;;;4783811;29;20061;-78
2023/07/09 06:51:34;;;;;;;4.05;2.80;;;25.90;80.10;;;;;;4778390;29;20046;-78
2023/07/09 06:54:01;;;;;;;3.72;2.85;;;26.10;79.80;;;;;;4789703;29;20046;-78
2023/07/09 06:56:29;;;;;;;4.07;2.88;;;26.10;77.50;;;;;;4800152;29;22321;-77
2023/07/09 06:58:56;;;;;;;3.20;2.33;;;26.20;76.20;;;;;;4784572;29;20620;-78
2023/07/09 07:01:23;;;;;;;4.93;2.58;;;26.20;73.80;;;;;;4801214;29;20058;-78
2023/07/09 07:03:50;;;;;;;6.72;2.55;;;26.30;73.60;;;;;;4785960;29;20053;-77
2023/07/09 07:06:17;;;;;;;4.95;3.00;;;26.50;73.00;;;;;;4785278;29;20062;-78
2023/07/09 07:08:45;;;;;;;5.32;2.60;;;26.60;72.60;;;;;;4781308;29;20146;-78
2023/07/09 07:11:12;;;;;;;5.68;2.45;;;26.70;72.70;;;;;;4784481;29;20050;-77
2023/07/09 07:13:41;;;;;;;4.47;2.55;;;26.80;71.60;;;;;;4776880;29;20058;-77
2023/07/09 07:16:10;;;;;;;2.72;2.00;;;26.90;71.40;;;;;;4796636;29;20050;-78
2023/07/09 07:18:38;;;;;;;3.95;2.45;;;27.00;69.70;;;;;;4760529;29;20057;-77
2023/07/09 07:21:06;;;;;;;5.35;2.78;;;27.10;70.20;;;;;;4789240;29;20035;-77
2023/07/09 07:23:33;;;;;;;3.35;2.25;;;27.20;68.50;;;;;;4795370;29;20162;-78
2023/07/09 07:26:00;;;;;;;4.95;2.28;;;27.30;68.10;;;;;;4791815;29;20087;-78
2023/07/09 07:28:28;;;;;;;5.82;2.13;;;27.40;69.70;;;;;;4762070;29;20091;-77
2023/07/09 07:31:07;;;;;;;4.00;2.05;;;27.50;67.20;;;;;;4760618;29;20128;-77
2023/07/09 07:33:35;;;;;;;4.97;2.15;;;27.50;67.00;;;;;;4794461;29;20494;-77
2023/07/09 07:36:06;;;;;;;4.07;2.17;;;27.60;66.70;;;;;;4777353;29;20046;-77
2023/07/09 07:38:53;;;;;;;3.60;1.90;;;27.80;67.50;;;;;;4801795;29;20081;-77
2023/07/09 07:41:20;;;;;;;4.30;1.75;;;27.90;65.80;;;;;;4796686;29;20062;-77
2023/07/09 07:43:47;;;;;;;3.30;2.05;;;27.90;66.60;;;;;;4771776;29;20274;-77
2023/07/09 07:46:14;;;;;;;3.60;2.05;;;28.00;65.90;;;;;;4756984;29;22467;-78
2023/07/09 07:48:42;;;;;;;3.60;1.90;;;28.10;66.20;;;;;;4777598;29;20094;-78
2023/07/09 07:51:09;;;;;;;3.25;1.92;;;28.10;64.10;;;;;;4795163;29;20394;-77
2023/07/09 07:53:36;;;;;;;3.17;1.67;;;28.10;64.00;;;;;;4782932;29;20053;-78
2023/07/09 07:56:03;;;;;;;4.93;2.35;;;28.20;65.20;;;;;;4792262;29;20053;-77
2023/07/09 07:58:32;;;;;;;3.63;2.45;;;28.30;64.40;;;;;;4807044;29;20050;-78
2023/07/09 08:01:00;;;;;;;3.25;2.05;;;28.30;62.40;;;;;;4814399;29;20105;-77
2023/07/09 08:03:27;;;;;;;3.15;1.80;;;28.30;61.10;;;;;;4809133;29;20054;-78
2023/07/09 08:05:55;;;;;;;3.42;2.00;;;28.40;62.00;;;;;;4813048;29;20791;-78
2023/07/09 08:08:22;;;;;;;2.58;1.70;;;28.50;60.80;;;;;;4801821;29;20069;-77
2023/07/09 08:10:50;;;;;;;3.38;1.95;;;28.50;61.50;;;;;;4804277;29;20068;-77
2023/07/09 08:13:18;;;;;;;3.50;1.90;;;28.60;62.40;;;;;;4806323;29;20634;-77
2023/07/09 08:15:46;;;;;;;3.53;1.67;;;28.60;60.50;;;;;;4803600;29;20092;-78
2023/07/09 08:18:14;;;;;;;3.13;2.03;;;28.60;60.30;;;;;;4770062;29;20069;-78
2023/07/09 08:20:45;;;;;;;4.18;1.80;;;28.60;60.10;;;;;;4799757;29;22443;-76
2023/07/09 08:23:12;;;;;;;1.92;1.33;;;28.70;59.60;;;;;;4773366;29;20484;-78
2023/07/09 08:25:39;;;;;;;4.30;1.85;;;28.70;57.30;;;;;;4792332;29;22314;-79
2023/07/09 08:28:07;;;;;;;2.55;1.17;;;28.70;58.00;;;;;;4787449;29;20569;-78
2023/07/09 08:30:35;;;;;;;2.55;1.73;;;28.70;55.90;;;;;;4794207;29;20104;-79
2023/07/09 08:33:02;;;;;;;3.50;1.17;;;28.80;56.40;;;;;;4809089;29;20054;-78
2023/07/09 08:35:32;;;;;;;4.57;2.13;;;28.90;56.30;;;;;;4791870;29;20045;-78
2023/07/09 08:38:03;;;;;;;1.88;1.50;;;29.00;57.60;;;;;;4801259;29;20040;-78
2023/07/09 08:40:31;;;;;;;4.88;1.50;;;29.10;57.70;;;;;;4794387;29;20077;-80
2023/07/09 08:43:41;;;;;;;4.07;1.50;;;28.90;55.30;;;;;;4796093;29;20074;-78
2023/07/09 08:46:20;;;;;;;2.92;1.85;;;28.90;54.70;;;;;;4746284;29;20638;-79
2023/07/09 08:48:51;;;;;;;1.80;1.38;;;29.00;56.80;;;;;;4777919;29;20092;-79
2023/07/09 08:51:43;;;;;;;2.88;1.58;;;29.10;56.50;;;;;;4787446;29;20554;-80
2023/07/09 08:54:24;;;;;;;2.17;1.20;;;29.30;55.60;;;;;;4790046;29;20052;-79
2023/07/09 08:56:59;;;;;;;2.05;1.25;;;29.30;55.80;;;;;;4772466;29;20053;-78
2023/07/09 08:59:27;;;;;;;2.55;1.50;;;29.50;54.00;;;;;;4816980;29;20046;-79
2023/07/09 09:01:59;;;;;;;3.50;1.23;;;29.40;53.60;;;;;;4773222;29;20049;-82
2023/07/09 09:04:30;;;;;;;3.00;1.45;;;29.30;52.80;;;;;;4816151;29;20049;-79
2023/07/09 09:07:25;;;;;;;2.92;1.50;;;29.20;53.50;;;;;;4804908;29;20057;-79
2023/07/09 09:10:01;;;;;;;3.30;1.25;;;29.30;54.10;;;;;;4788661;29;20546;-80
2023/07/09 09:12:36;;;;;;;3.78;1.50;;;29.30;53.80;;;;;;4791447;29;20897;-79
2023/07/09 09:15:16;;;;;;;4.18;1.50;;;29.30;53.30;;;;;;4817566;29;20053;-80
2023/07/09 09:17:43;;;;;;;3.75;1.50;;;29.30;53.10;;;;;;4805363;29;20066;-79
2023/07/09 09:20:21;;;;;;;2.05;1.52;;;29.40;53.10;;;;;;4796962;29;20399;-82
2023/07/09 09:23:06;;;;;;;2.03;1.50;;;29.40;54.30;;;;;;4798172;29;20058;-79
2023/07/09 09:25:37;;;;;;;3.28;1.48;;;29.50;56.30;;;;;;4791850;29;20113;-81
2023/07/09 09:28:04;;;;;;;3.10;1.63;;;29.70;55.70;;;;;;4794521;29;20069;-80
2023/07/09 09:30:32;;;;;;;1.55;1.20;;;29.80;55.40;;;;;;4789222;29;20061;-80
2023/07/09 09:33:08;;;;;;;2.25;1.27;;;29.90;54.80;;;;;;4791368;29;20057;-82
2023/07/09 09:35:41;;;;;;;1.80;1.13;;;29.80;53.60;;;;;;4768829;29;20586;-82
2023/07/09 09:38:17;;;;;;;2.03;1.50;;;29.70;53.20;;;;;;4793298;29;20686;-81
2023/07/09 09:40:44;;;;;;;2.25;1.55;;;29.70;53.40;;;;;;4784249;29;20050;-80
2023/07/09 09:43:23;;;;;;;2.30;1.60;;;29.70;52.00;;;;;;4786544;29;20050;-80
2023/07/09 09:46:16;;;;;;;3.95;2.00;;;29.70;53.10;;;;;;4784763;29;20085;-81
2023/07/09 09:48:45;;;;;;;3.28;1.23;;;29.80;54.00;;;;;;4754865;29;20159;-82
2023/07/09 09:51:13;;;;;;;5.95;1.50;;;29.80;53.00;;;;;;4769821;29;20062;-82
2023/07/09 09:54:04;;;;;;;3.53;1.50;;;29.80;54.00;;;;;;4749676;29;22713;-82
2023/07/09 09:56:36;;;;;;;3.40;1.63;;;29.60;54.30;;;;;;4753766;29;20054;-81
2023/07/09 09:59:05;;;;;;;2.97;1.38;;;29.70;54.30;;;;;;4764207;29;20505;-82
2023/07/09 10:01:35;;;;;;;5.32;1.83;;;29.70;53.80;;;;;;4786998;29;20082;-82
2023/07/09 10:04:05;;;;;;;3.15;1.58;;;29.70;54.30;;;;;;4769233;29;20094;-80
2023/07/09 10:06:45;;;;;;;3.00;1.70;;;29.70;53.80;;;;;;4773898;29;20061;-81
2023/07/09 10:09:47;;;;;;;3.03;1.67;;;29.60;52.60;;;;;;4767731;29;20063;-79
2023/07/09 10:12:42;;;;;;;2.95;1.75;;;29.40;52.60;;;;;;4791451;29;20068;-80
2023/07/09 10:15:17;;;;;;;2.00;1.52;;;29.60;53.00;;;;;;4784184;29;20059;-81
2023/07/09 10:18:30;;;;;;;2.63;1.85;;;29.80;54.50;;;;;;4771188;29;20084;-80
2023/07/09 10:21:05;;;;;;;;;;;30.00;55.40;;;;;;4772227;29;21460;-81
2023/07/09 10:23:47;;;;;;;2.97;1.48;;;30.20;56.80;;;;;;4764909;29;20049;-81
2023/07/09 10:26:35;;;;;;;2.57;1.53;;;30.20;54.50;;;;;;4794190;29;20050;-79
2023/07/09 10:29:15;;;;;;;2.67;1.70;;;29.90;53.50;;;;;;4788958;29;20430;-79
2023/07/09 10:32:20;;;;;;;2.47;1.50;;;29.40;54.50;;;;;;4787844;29;20065;-79
2023/07/09 10:35:00;;;;;;;2.45;1.67;;;29.70;54.70;;;;;;4789951;29;20103;-80
2023/07/09 10:38:01;;;;;;;2.37;1.80;;;29.40;53.70;;;;;;4797950;29;20058;-81
2023/07/09 10:40:38;;;;;;;3.40;1.95;;;29.70;55.80;;;;;;4767795;29;20303;-80
2023/07/09 10:43:10;;;;;;;2.25;2.00;;;30.00;53.70;;;;;;4791207;29;20495;-80
2023/07/09 10:45:53;;;;;;;4.80;1.70;;;30.00;54.60;;;;;;4785904;29;20070;-80
2023/07/09 10:48:38;;;;;;;2.97;2.33;;;30.00;54.50;;;;;;4764920;29;20069;-79
2023/07/09 10:51:13;;;;;;;2.15;1.77;;;29.90;55.30;;;;;;4786422;29;20618;-81
2023/07/09 10:53:48;;;;;;;4.78;1.90;;;29.70;55.00;;;;;;4794834;29;20442;-79
2023/07/09 10:56:20;;;;;;;2.15;1.60;;;29.30;53.50;;;;;;4768785;29;20118;-78
2023/07/09 10:59:10;;;;;;;2.95;2.10;;;29.20;54.80;;;;;;4768453;29;20196;-80
2023/07/09 11:01:42;;;;;;;2.50;1.80;;;29.10;54.40;;;;;;4785318;29;20138;-80
2023/07/09 11:04:26;;;;;;;2.28;1.98;;;28.90;54.80;;;;;;4786026;29;20043;-79
2023/07/09 11:06:56;;;;;;;2.60;1.67;;;28.70;55.60;;;;;;4793241;29;20054;-79
2023/07/09 11:09:30;;;;;;;3.88;1.73;;;28.60;55.90;;;;;;4775635;29;20158;-78
2023/07/09 11:12:04;;;;;;;3.08;1.55;;;28.90;55.20;;;;;;4771976;29;22299;-79
2023/07/09 11:14:43;;;;;;;2.83;1.70;;;29.30;55.30;;;;;;4769612;29;20050;-79
2023/07/09 11:17:17;;;;;;;3.17;1.65;;;29.50;55.00;;;;;;4766426;29;20050;-81
2023/07/09 11:19:53;;;;;;;2.33;1.70;;;29.80;55.40;;;;;;4768328;29;20761;-80
2023/07/09 11:22:23;;;;;;;2.20;1.45;;;29.90;52.80;;;;;;4790910;29;22754;-81
2023/07/09 11:25:14;;;;;;;1.85;1.40;;;29.90;52.90;;;;;;4792870;29;20057;-79
2023/07/09 11:27:57;;;;;;;2.03;1.40;;;29.90;54.20;;;;;;4796524;29;20125;-80
2023/07/09 11:30:27;;;;;;;1.92;1.40;;;29.80;52.70;;;;;;4770773;29;20082;-79
2023/07/09 11:33:19;;;;;;;4.22;1.77;;;29.50;53.00;;;;;;4774354;29;20058;-80
2023/07/09 11:36:05;;;;;;;2.13;1.60;;;29.50;54.50;;;;;;4768122;29;22860;-79
2023/07/09 11:38:42;;;;;;;2.93;1.90;;;29.70;53.30;;;;;;4769415;29;20054;-80
2023/07/09 11:41:43;;;;;;;2.72;1.85;;;29.90;54.70;;;;;;4771084;29;20309;-80
2023/07/09 11:44:19;;;;;;;3.13;1.60;;;30.00;52.90;;;;;;4791734;29;20380;-80
2023/07/09 11:47:20;;;;;;;2.65;1.83;;;30.10;52.10;;;;;;4796076;29;20058;-81
2023/07/09 11:50:06;;;;;;;2.72;1.27;;;30.30;53.80;;;;;;4784694;29;20081;-80
2023/07/09 11:52:45;;;;;;;3.83;1.50;;;30.30;51.70;;;;;;4791939;29;20146;-81
2023/07/09 11:55:24;;;;;;;2.05;1.40;;;30.30;52.80;;;;;;4758910;29;20192;-79
2023/07/09 11:57:56;;;;;;;3.90;1.70;;;30.10;53.40;;;;;;4787836;29;21644;-80
2023/07/09 12:00:26;;;;;;;3.47;1.40;;;29.90;51.10;;;;;;4772234;29;20058;-81
2023/07/09 12:02:53;;;;;;;2.38;1.58;;;30.10;51.50;;;;;;4792048;29;20932;-82
2023/07/09 12:05:27;;;;;;;2.28;1.60;;;30.30;51.80;;;;;;4760174;29;20107;-81
2023/07/09 12:07:56;;;;;;;2.90;1.88;;;30.30;50.70;;;;;;4781025;29;20149;-82
2023/07/09 12:10:27;;;;;;;2.00;1.40;;;30.30;52.30;;;;;;4789022;29;20058;-80
2023/07/09 12:12:59;;;;;;;2.70;1.50;;;30.20;52.30;;;;;;4777001;29;20054;-80
2023/07/09 12:15:29;;;;;;;2.55;1.33;;;30.20;51.30;;;;;;4788128;29;20543;-81
2023/07/09 12:17:58;;;;;;;2.92;1.52;;;30.20;51.90;;;;;;4770039;29;20050;-80
2023/07/09 12:20:29;;;;;;;2.55;1.50;;;30.30;52.60;;;;;;4770656;29;20061;-82
2023/07/09 12:22:57;;;;;;;3.92;1.90;;;30.30;53.50;;;;;;4786598;29;20051;-80
2023/07/09 12:25:29;;;;;;;3.33;1.65;;;30.30;51.60;;;;;;4796833;29;20072;-80
2023/07/09 12:27:58;;;;;;;3.17;1.60;;;30.20;50.10;;;;;;4773895;29;20058;-80
2023/07/09 12:30:25;;;;;;;3.40;1.70;;;30.20;49.30;;;;;;4783813;29;22425;-81
2023/07/09 12:32:52;;;;;;;1.85;1.52;;;30.30;50.00;;;;;;4788667;29;20059;-79
2023/07/09 12:35:20;;;;;;;2.30;1.45;;;30.20;49.90;;;;;;4783548;29;20069;-81
2023/07/09 12:37:50;;;;;;;2.13;1.50;;;30.20;49.00;;;;;;4797365;29;20071;-81
2023/07/09 12:40:23;;;;;;;2.22;1.67;;;30.30;50.10;;;;;;4773123;29;20518;-79
2023/07/09 12:42:51;;;;;;;2.55;1.60;;;30.30;51.30;;;;;;4783982;29;20054;-80
2023/07/09 12:45:20;;;;;;;2.50;1.65;;;30.50;50.70;;;;;;4778782;29;20054;-81
2023/07/09 12:47:49;;;;;;;2.80;1.88;;;30.40;51.60;;;;;;4784897;29;20110;-81
2023/07/09 12:50:30;;;;;;;3.28;1.55;;;30.40;51.70;;;;;;4771709;29;20437;-80
2023/07/09 12:53:16;;;;;;;2.90;2.00;;;30.40;52.60;;;;;;4775949;29;20050;-79
2023/07/09 12:55:46;;;;;;;2.80;1.67;;;30.50;52.60;;;;;;4773052;29;22117;-79
2023/07/09 12:58:39;;;;;;;2.00;1.55;;;30.50;50.60;;;;;;4782167;29;20123;-80
2023/07/09 13:01:16;;;;;;;2.45;1.50;;;30.50;50.30;;;;;;4785245;29;20054;-80
2023/07/09 13:03:54;;;;;;;2.10;1.73;;;30.60;50.30;;;;;;4761789;29;20050;-81
2023/07/09 13:06:27;;;;;;;2.92;1.77;;;30.60;49.40;;;;;;4764736;29;20962;-79
2023/07/09 13:08:59;;;;;;;3.45;1.77;;;30.50;49.00;;;;;;4752837;29;20243;-80